createdAt,value
2022-11-14T00:00:55.220Z,4.8
2022-11-14T00:06:03.033Z,5
2022-11-14T00:11:10.987Z,5.1
2022-11-14T00:16:18.921Z,5.1
2022-11-14T00:21:27.530Z,5.1
2022-11-14T00:26:36.006Z,5
2022-11-14T00:31:44.519Z,5
2022-11-14T00:36:53.036Z,5
2022-11-14T00:42:01.565Z,5
2022-11-14T00:47:10.082Z,5
2022-11-14T00:52:18.676Z,5
2022-11-14T00:57:27.149Z,5
2022-11-14T01:02:35.751Z,5
2022-11-14T01:07:44.320Z,5
2022-11-14T01:12:52.872Z,5
2022-11-14T01:18:01.300Z,5.1
2022-11-14T01:23:09.842Z,5.1
2022-11-14T01:28:19.385Z,5.1
2022-11-14T01:33:28.924Z,5.1
2022-11-14T01:38:36.602Z,5.1
2022-11-14T01:43:44.096Z,5.1
2022-11-14T01:48:51.523Z,5.1
2022-11-14T01:53:58.998Z,5.1
2022-11-14T01:59:06.433Z,5.1
2022-11-14T02:04:13.844Z,5.1
2022-11-14T02:09:21.323Z,5.1
2022-11-14T02:14:28.922Z,5.1
2022-11-14T02:19:36.235Z,5.1
2022-11-14T02:24:43.683Z,5.1
2022-11-14T02:29:51.174Z,5.1
2022-11-14T02:34:58.710Z,5.1
2022-11-14T02:40:06.121Z,5.1
2022-11-14T02:45:13.485Z,5.1
2022-11-14T02:50:20.954Z,5.1
2022-11-14T02:55:28.382Z,5.1
2022-11-14T03:00:35.876Z,5.1
2022-11-14T03:05:43.356Z,5.2
2022-11-14T03:10:50.765Z,5.2
2022-11-14T03:15:58.298Z,5.2
2022-11-14T03:21:05.714Z,5.2
2022-11-14T03:26:13.132Z,5.2
2022-11-14T03:31:20.598Z,5.2
2022-11-14T03:36:28.132Z,5.1
2022-11-14T03:41:35.521Z,5.2
2022-11-14T03:46:43.002Z,5.2
2022-11-14T03:51:50.637Z,5.2
2022-11-14T03:56:58.156Z,5.2
2022-11-14T04:02:05.600Z,5.1
2022-11-14T04:07:13.139Z,5
2022-11-14T04:12:20.725Z,5
2022-11-14T04:17:28.214Z,5.1
2022-11-14T04:22:35.814Z,5
2022-11-14T04:32:50.918Z,5.2
2022-11-14T04:37:58.416Z,5.2
2022-11-14T04:43:06.022Z,5.2
2022-11-14T04:48:13.520Z,5.1
2022-11-14T04:53:21.305Z,5
2022-11-14T04:58:28.919Z,5
2022-11-14T05:03:36.624Z,5.1
2022-11-14T05:08:44.290Z,5.1
2022-11-14T05:13:51.931Z,5.1
2022-11-14T05:18:59.775Z,5.2
2022-11-14T05:24:07.375Z,5
2022-11-14T05:29:15.087Z,4.9
2022-11-14T05:34:23.013Z,4.7
2022-11-14T05:39:30.532Z,4.7
2022-11-14T05:44:38.295Z,4.7
2022-11-14T05:49:45.997Z,4.6
2022-11-14T05:54:53.737Z,4.5
2022-11-14T06:00:01.666Z,4.5
2022-11-14T06:05:09.528Z,4.4
2022-11-14T06:10:17.510Z,4.3
2022-11-14T06:15:25.333Z,4.4
2022-11-14T06:25:41.171Z,4.6
2022-11-14T06:30:49.101Z,4.7
2022-11-14T06:35:57.010Z,4.8
2022-11-14T06:41:04.995Z,5
2022-11-14T06:46:12.868Z,5.1
2022-11-14T06:51:20.761Z,5
2022-11-14T06:56:28.610Z,5.1
2022-11-14T07:01:36.484Z,5.1
2022-11-14T07:06:44.924Z,5.1
2022-11-14T07:11:53.511Z,5.2
2022-11-14T07:17:01.924Z,5.4
2022-11-14T07:22:10.244Z,5.4
2022-11-14T07:27:18.716Z,5.5
2022-11-14T07:32:27.158Z,5.5
2022-11-14T07:37:35.616Z,5.7
2022-11-14T07:42:44.115Z,6.4
2022-11-14T07:47:52.467Z,6.7
2022-11-14T07:53:00.934Z,6.4
2022-11-14T07:58:09.299Z,7
2022-11-14T08:03:17.800Z,7.9
2022-11-14T08:08:26.218Z,7.9
2022-11-14T08:13:35.549Z,7.8
2022-11-14T08:18:43.150Z,7.9
2022-11-14T08:23:50.298Z,8.5
2022-11-14T08:28:57.717Z,9.1
2022-11-14T08:34:05.300Z,9.7
2022-11-14T08:39:12.693Z,8.7
2022-11-14T08:44:19.880Z,9.3
2022-11-14T08:49:27.379Z,9.3
2022-11-14T08:54:34.535Z,9.7
2022-11-14T08:59:41.886Z,9.8
2022-11-14T09:04:49.470Z,10.2
2022-11-14T09:09:56.527Z,9.8
2022-11-14T09:15:03.838Z,9.8
2022-11-14T09:20:11.160Z,10.6
2022-11-14T09:25:18.649Z,10.7
2022-11-14T09:30:25.696Z,10.7
2022-11-14T09:35:33.100Z,10.6
2022-11-14T09:40:40.199Z,10.8
2022-11-14T09:45:47.671Z,10.9
2022-11-14T09:50:54.805Z,11.3
2022-11-14T09:56:02.049Z,12
2022-11-14T10:01:09.448Z,12.5
2022-11-14T10:06:16.536Z,11.9
2022-11-14T10:11:23.779Z,12.5
2022-11-14T10:16:30.982Z,12.9
2022-11-14T10:21:38.132Z,13
2022-11-14T10:26:45.456Z,12.7
2022-11-14T10:31:52.814Z,12.4
2022-11-14T10:37:00.085Z,12.9
2022-11-14T10:42:07.343Z,13
2022-11-14T10:47:14.604Z,13.1
2022-11-14T10:52:22.006Z,12.9
2022-11-14T10:57:29.174Z,13
2022-11-14T11:02:36.406Z,13.6
2022-11-14T11:07:43.667Z,13.7
2022-11-14T11:12:51.051Z,14.4
2022-11-14T11:17:58.162Z,14.3
2022-11-14T11:23:05.336Z,14.6
2022-11-14T11:28:12.552Z,13.5
2022-11-14T11:33:20.026Z,13.3
2022-11-14T11:38:27.496Z,14.6
2022-11-14T11:43:35.152Z,13.9
2022-11-14T11:53:49.838Z,14.4
2022-11-14T11:58:57.336Z,14.7
2022-11-14T12:04:04.688Z,14.6
2022-11-14T12:09:12.111Z,14.7
2022-11-14T12:14:19.524Z,13.9
2022-11-14T12:19:26.915Z,14.4
2022-11-14T12:24:34.321Z,14.1
2022-11-14T12:29:41.783Z,14.2
2022-11-14T12:34:49.177Z,14.7
2022-11-14T12:39:57.203Z,14.4
2022-11-14T12:45:05.244Z,14.7
2022-11-14T12:50:13.384Z,14.5
2022-11-14T12:55:19.802Z,13.9
2022-11-14T13:00:26.727Z,14.4
2022-11-14T13:05:33.646Z,15
2022-11-14T13:10:40.570Z,14.7
2022-11-14T13:15:47.531Z,15.1
2022-11-14T13:20:54.476Z,12.9
2022-11-14T13:26:01.416Z,14.2
2022-11-14T13:31:08.482Z,13.6
2022-11-14T13:36:15.369Z,12.2
2022-11-14T13:41:22.297Z,12.1
2022-11-14T13:46:29.287Z,13
2022-11-14T13:51:36.240Z,13.2
2022-11-14T13:56:43.221Z,13.3
2022-11-14T14:01:50.168Z,13.9
2022-11-14T14:06:57.146Z,13.5
2022-11-14T14:12:04.087Z,12.9
2022-11-14T14:17:11.091Z,11.8
2022-11-14T14:22:18.083Z,11.5
2022-11-14T14:27:25.128Z,11.3
2022-11-14T16:50:51.931Z,8.5
2022-11-14T16:55:59.335Z,8.4
2022-11-14T17:01:06.910Z,8.3
2022-11-14T17:06:14.434Z,8.2
2022-11-14T17:11:21.999Z,7.9
2022-11-14T17:16:29.781Z,8.4
2022-11-14T17:21:37.602Z,8.6
2022-11-14T17:26:45.421Z,8.6
2022-11-14T17:31:53.205Z,8.5
2022-11-14T17:37:00.976Z,8.5
2022-11-14T17:42:08.830Z,8.4
2022-11-14T17:47:16.570Z,8.3
2022-11-14T17:52:24.339Z,8.1
2022-11-14T17:57:32.183Z,8.1
2022-11-14T18:02:39.996Z,8.1
2022-11-14T18:07:47.779Z,8
2022-11-14T18:12:55.604Z,7.9
2022-11-14T18:18:03.409Z,8.1
2022-11-14T18:23:11.837Z,8.2
2022-11-14T18:28:20.241Z,8.2
2022-11-14T18:33:28.683Z,8.4
2022-11-14T18:38:37.089Z,8.2
2022-11-14T18:43:45.523Z,8.1
2022-11-14T18:48:53.891Z,7.9
2022-11-14T18:54:02.303Z,7.9
2022-11-14T18:59:10.688Z,7.8
2022-11-14T19:04:19.109Z,7.6
2022-11-14T19:09:27.479Z,7.6
2022-11-14T19:14:35.853Z,7.8
2022-11-14T19:19:44.280Z,7.6
2022-11-14T19:24:52.692Z,7.5
2022-11-14T19:30:02.089Z,7.5
2022-11-14T19:35:09.788Z,7.6
2022-11-14T19:40:17.164Z,7.6
2022-11-14T19:45:24.611Z,7.5
2022-11-14T19:50:32.084Z,7.3
2022-11-14T19:55:39.533Z,7
2022-11-14T20:00:47.024Z,6.7
2022-11-14T20:05:54.497Z,6.9
2022-11-14T20:11:01.949Z,6.9
2022-11-14T20:16:09.445Z,7.4
2022-11-14T20:21:16.915Z,7.2
2022-11-14T20:26:24.411Z,7
2022-11-14T20:31:31.987Z,7
2022-11-14T20:36:39.460Z,7
2022-11-14T20:41:46.856Z,7.1
2022-11-14T20:46:54.212Z,7
2022-11-14T20:52:01.694Z,7.5
2022-11-14T20:57:09.193Z,7.7
2022-11-14T21:02:16.602Z,8
2022-11-14T21:07:24.173Z,7.8
2022-11-14T21:12:31.508Z,7.7
2022-11-14T21:17:38.972Z,7.6
2022-11-14T21:22:46.456Z,7.4
2022-11-14T21:27:53.846Z,7.2
2022-11-14T21:33:01.243Z,7.1
2022-11-14T21:38:08.733Z,6.8
2022-11-14T21:43:16.336Z,7.2
2022-11-14T21:48:23.975Z,7.3
2022-11-14T21:53:31.636Z,7.6
2022-11-14T21:58:39.164Z,7.8
2022-11-14T22:03:46.776Z,7.9
2022-11-14T22:08:54.326Z,8.1
2022-11-14T22:14:01.968Z,8.2
2022-11-14T22:19:09.444Z,8
2022-11-14T22:24:17.057Z,7.9
2022-11-14T22:29:24.622Z,7.7
2022-11-14T22:34:32.215Z,7.7
2022-11-14T22:39:39.819Z,7.5
2022-11-14T22:44:47.402Z,7.5
2022-11-14T22:49:55.296Z,7.6
2022-11-14T22:55:03.201Z,7.9
2022-11-14T23:00:10.962Z,8
2022-11-14T23:05:18.709Z,8.2
2022-11-14T23:10:26.497Z,8.2
2022-11-14T23:15:34.267Z,8.4
2022-11-14T23:20:41.995Z,8.3
2022-11-14T23:25:49.825Z,8.3
2022-11-14T23:30:57.623Z,8.1
2022-11-14T23:36:05.365Z,8
2022-11-14T23:41:13.126Z,8
2022-11-14T23:46:20.933Z,7.7
2022-11-14T23:51:28.677Z,7.6
2022-11-14T23:56:37.095Z,7.5
